Mura (Bages)





Hora UTC 21:15
Temperatura 23.3 ºC
Humedad 59.0 %
Presión 1008.4 hPa
Pluja 0.0 mm
Velocidad viento 0.0 km/h
Dirección viento

Datos diarios 2024-07-24



Hora UTC (invierno +1h; verano +2h)
Temperatura (ºC) Humedad (%) Presión (hPa) Velocidad viento (km/h) Precipitación (mm)
Hora UTC Aire Humedad Presión Vel. Dir. Vel. Max Dir. Intent. máx 5 min.
00:05 20.6 81.0 1012.7 0.0 0.0 0.0
00:15 20.4 82.0 1012.5 0.0 0.0 0.0
00:25 20.3 81.0 1012.4 0.0 0.0 0.0
00:35 20.3 83.0 1012.4 0.0 0.0 0.0
00:45 20.1 82.0 1012.3 1.6 8.0 0.0
00:55 20.2 84.0 1012.4 0.0 8.0 0.0
01:05 20.1 83.0 1012.4 1.6 8.0 0.0
01:15 20.0 82.0 1012.4 0.0 8.0 0.0
01:25 19.9 83.0 1012.4 0.0 8.0 0.0
01:35 19.6 84.0 1012.4 0.0 8.0 0.0
01:45 19.5 85.0 1012.4 0.0 8.0 0.0
01:55 19.3 85.0 1012.1 0.0 8.0 0.0
02:05 19.4 86.0 1012.1 0.0 8.0 0.0
02:15 19.4 86.0 1011.9 0.0 8.0 0.0
02:25 19.3 86.0 1011.8 0.0 8.0 0.0
02:35 19.2 87.0 1011.8 0.0 8.0 0.0
02:45 19.2 87.0 1011.6 0.0 8.0 0.0
02:55 19.0 87.0 1011.6 0.0 8.0 0.0
03:05 18.9 87.0 1011.6 0.0 8.0 0.0
03:15 18.8 87.0 1011.8 0.0 8.0 0.0
03:25 18.6 88.0 1011.6 0.0 8.0 0.0
03:35 18.4 88.0 1011.6 0.0 8.0 0.0
03:45 18.3 87.0 1011.6 0.0 8.0 0.0
03:55 18.1 88.0 1011.7 0.0 8.0 0.0
04:05 17.9 88.0 1011.7 0.0 8.0 0.0
04:15 17.8 88.0 1011.8 0.0 8.0 0.0
04:25 17.7 87.0 1011.7 0.0 8.0 0.0
04:35 17.7 88.0 1011.7 0.0 8.0 0.0
04:45 17.6 87.0 1011.7 0.0 8.0 0.0
04:55 17.4 87.0 1011.8 0.0 8.0 0.0
05:05 17.4 88.0 1011.8 0.0 8.0 0.0
05:15 17.4 87.0 1011.6 0.0 8.0 0.0
05:25 17.3 88.0 1011.7 0.0 8.0 0.0
05:35 17.4 87.0 1011.7 0.0 8.0 0.0
05:45 17.8 87.0 1011.7 0.0 8.0 0.0
05:55 18.3 86.0 1011.7 0.0 8.0 0.0
06:05 19.1 85.0 1011.7 0.0 8.0 0.0
06:15 20.0 81.0 1011.7 0.0 8.0 0.0
06:25 20.7 81.0 1011.7 0.0 8.0 0.0
06:35 21.6 77.0 1011.7 0.0 8.0 0.0
06:45 22.4 75.0 1011.7 0.0 8.0 0.0
06:55 23.4 73.0 1011.6 0.0 8.0 0.0
07:05 24.4 68.0 1011.6 0.0 8.0 0.0
07:15 25.3 66.0 1011.6 0.0 8.0 0.0
07:25 26.1 64.0 1011.4 0.0 8.0 0.0
07:35 26.8 62.0 1011.4 0.0 8.0 0.0
07:45 27.4 58.0 1011.2 0.0 8.0 0.0
07:55 27.7 47.0 1011.1 0.0 8.0 0.0
08:05 28.6 40.0 1011.1 0.0 14.5 0.0
08:15 28.7 38.0 1011.1 6.4 14.5 0.0
08:25 29.2 38.0 1011.1 0.0 14.5 0.0
08:35 29.4 37.0 1011.1 1.6 14.5 0.0
08:45 29.2 38.0 1011.0 3.2 14.5 0.0
08:55 29.5 37.0 1010.9 1.6 14.5 0.0
09:05 29.7 36.0 1010.9 3.2 14.5 0.0
09:15 29.7 35.0 1010.8 3.2 17.7 0.0
09:25 29.9 35.0 1010.7 1.6 17.7 0.0
09:35 30.1 34.0 1010.7 3.2 17.7 0.0
09:45 30.1 33.0 1010.6 4.8 17.7 0.0
09:55 30.8 32.0 1010.6 0.0 17.7 0.0
10:05 30.2 33.0 1010.6 4.8 17.7 0.0
10:15 30.2 35.0 1010.6 4.8 20.9 0.0
10:25 30.5 35.0 1010.5 4.8 20.9 0.0
10:35 30.1 38.0 1010.5 6.4 20.9 0.0
10:45 30.2 38.0 1010.5 4.8 20.9 0.0
10:55 30.9 37.0 1010.1 1.6 20.9 0.0
11:05 30.8 37.0 1010.1 3.2 20.9 0.0
11:15 30.9 37.0 1010.0 3.2 20.9 0.0
11:25 31.4 36.0 1009.9 3.2 20.9 0.0
11:35 31.7 35.0 1009.9 4.8 20.9 0.0
11:45 31.9 35.0 1009.6 3.2 20.9 0.0
11:55 32.1 35.0 1009.4 3.2 20.9 0.0
12:05 32.8 35.0 1009.4 3.2 20.9 0.0
12:15 32.6 36.0 1009.1 3.2 20.9 0.0
12:25 32.7 35.0 1008.9 4.8 20.9 0.0
12:35 32.7 34.0 1008.9 3.2 20.9 0.0
12:45 33.1 37.0 1008.7 1.6 20.9 0.0
12:55 33.3 36.0 1008.5 1.6 20.9 0.0
13:05 32.3 42.0 1008.5 8.0 24.1 0.0
13:15 32.1 41.0 1008.4 8.0 24.1 0.0
13:25 32.4 42.0 1008.3 6.4 24.1 0.0
13:35 32.7 42.0 1008.3 4.8 24.1 0.0
13:45 32.5 41.0 1008.3 9.7 25.7 0.0
13:55 32.2 42.0 1008.2 6.4 25.7 0.0
14:05 32.2 40.0 1008.2 6.4 29.0 0.0
14:15 32.2 37.0 1008.2 6.4 29.0 0.0
14:25 32.3 38.0 1007.8 6.4 29.0 0.0
14:35 32.1 37.0 1007.8 4.8 29.0 0.0
14:45 31.9 38.0 1007.8 8.0 29.0 0.0
14:55 31.8 38.0 1007.8 8.0 29.0 0.0
15:05 32.1 38.0 1007.8 3.2 29.0 0.0
15:15 31.8 38.0 1007.6 9.7 30.6 0.0
15:25 31.4 38.0 1007.6 9.7 30.6 0.0
15:35 31.4 38.0 1007.6 4.8 30.6 0.0
15:45 31.3 39.0 1007.6 8.0 30.6 0.0
15:55 31.1 39.0 1007.4 4.8 30.6 0.0
16:05 30.9 39.0 1007.4 4.8 30.6 0.0
16:15 31.1 39.0 1007.3 3.2 30.6 0.0
16:25 30.9 40.0 1007.3 4.8 30.6 0.0
16:35 30.7 39.0 1007.3 4.8 30.6 0.0
16:45 30.6 39.0 1007.3 3.2 30.6 0.0
16:55 30.6 38.0 1007.3 4.8 30.6 0.0
17:05 30.3 38.0 1007.3 4.8 30.6 0.0
17:15 30.3 37.0 1007.3 1.6 30.6 0.0
17:25 30.1 36.0 1007.3 3.2 30.6 0.0
17:35 29.9 37.0 1007.3 3.2 30.6 0.0
17:45 29.7 37.0 1007.6 1.6 30.6 0.0
17:55 29.6 38.0 1007.5 1.6 30.6 0.0
18:05 29.0 41.0 1007.5 1.6 30.6 0.0
18:15 28.5 43.0 1007.7 4.8 30.6 0.0
18:25 28.2 45.0 1007.8 1.6 30.6 0.0
18:35 27.9 46.0 1007.8 0.0 30.6 0.0
18:45 27.7 46.0 1007.9 3.2 30.6 0.0
18:55 27.4 47.0 1007.9 3.2 30.6 0.0
19:05 27.2 47.0 1007.9 1.6 30.6 0.0
19:15 27.0 48.0 1007.9 0.0 30.6 0.0
19:25 26.7 49.0 1007.9 3.2 30.6 0.0
19:35 26.4 50.0 1007.9 1.6 30.6 0.0
19:45 26.3 51.0 1007.9 0.0 30.6 0.0
19:55 26.1 51.0 1008.2 1.6 30.6 0.0
20:05 25.7 53.0 1008.2 0.0 30.6 0.0
20:15 25.3 54.0 1008.3 0.0 30.6 0.0
20:25 25.1 55.0 1008.4 0.0 30.6 0.0
20:35 24.6 57.0 1008.4 0.0 30.6 0.0
20:45 24.4 58.0 1008.4 0.0 30.6 0.0
20:55 24.0 58.0 1008.4 0.0 30.6 0.0
21:05 23.6 59.0 1008.4 0.0 30.6 0.0
21:15 23.3 59.0 1008.4 0.0 30.6 0.0
Máxima 33.4 88.0 1012.7 9.7 30.6 0.0
Mínima 17.3 32.0 1007.3
Total 0.0